sensor_id;sensor_type;location;lat;lon;timestamp;pressure;altitude;pressure_sealevel;temperature;humidity
47716;BME280;33476;50.984;3.538;2024-02-15T00:01:51;101694.66;;;15.00;79.03
47716;BME280;33476;50.984;3.538;2024-02-15T00:04:16;101698.34;;;14.96;78.98
47716;BME280;33476;50.984;3.538;2024-02-15T00:06:43;101692.25;;;14.96;79.13
47716;BME280;33476;50.984;3.538;2024-02-15T00:09:08;101700.22;;;14.94;79.17
47716;BME280;33476;50.984;3.538;2024-02-15T00:11:33;101701.91;;;14.95;79.12
47716;BME280;33476;50.984;3.538;2024-02-15T00:13:59;101695.59;;;14.99;79.24
47716;BME280;33476;50.984;3.538;2024-02-15T00:16:25;101692.25;;;14.96;79.15
47716;BME280;33476;50.984;3.538;2024-02-15T00:18:53;101690.47;;;14.96;79.11
47716;BME280;33476;50.984;3.538;2024-02-15T00:21:20;101697.28;;;15.00;78.92
47716;BME280;33476;50.984;3.538;2024-02-15T00:23:47;101699.81;;;15.02;78.81
47716;BME280;33476;50.984;3.538;2024-02-15T00:26:12;101701.59;;;15.01;78.83
47716;BME280;33476;50.984;3.538;2024-02-15T00:28:37;101693.81;;;15.00;78.85
47716;BME280;33476;50.984;3.538;2024-02-15T00:31:03;101691.25;;;14.98;78.75
47716;BME280;33476;50.984;3.538;2024-02-15T00:33:29;101686.00;;;14.98;78.90
47716;BME280;33476;50.984;3.538;2024-02-15T00:35:54;101682.25;;;15.02;78.95
47716;BME280;33476;50.984;3.538;2024-02-15T00:38:19;101677.66;;;15.06;78.75
47716;BME280;33476;50.984;3.538;2024-02-15T00:40:45;101677.66;;;15.06;78.71
47716;BME280;33476;50.984;3.538;2024-02-15T00:43:11;101683.81;;;15.06;78.69
47716;BME280;33476;50.984;3.538;2024-02-15T00:45:36;101678.59;;;15.05;78.67
47716;BME280;33476;50.984;3.538;2024-02-15T00:48:01;101671.75;;;15.02;78.84
47716;BME280;33476;50.984;3.538;2024-02-15T00:50:27;101677.75;;;15.04;78.96
47716;BME280;33476;50.984;3.538;2024-02-15T00:52:52;101669.09;;;15.02;79.06
47716;BME280;33476;50.984;3.538;2024-02-15T00:55:17;101667.41;;;15.01;78.92
47716;BME280;33476;50.984;3.538;2024-02-15T00:57:44;101663.94;;;15.01;79.14
47716;BME280;33476;50.984;3.538;2024-02-15T01:00:10;101674.53;;;14.99;79.12
47716;BME280;33476;50.984;3.538;2024-02-15T01:02:38;101667.59;;;14.98;79.10
47716;BME280;33476;50.984;3.538;2024-02-15T01:05:03;101672.91;;;14.97;79.30
47716;BME280;33476;50.984;3.538;2024-02-15T01:07:32;101667.97;;;14.91;79.49
47716;BME280;33476;50.984;3.538;2024-02-15T01:09:57;101666.34;;;14.88;79.82
47716;BME280;33476;50.984;3.538;2024-02-15T01:12:23;101661.16;;;14.86;79.74
47716;BME280;33476;50.984;3.538;2024-02-15T01:14:48;101660.16;;;14.89;79.85
47716;BME280;33476;50.984;3.538;2024-02-15T01:17:13;101662.38;;;14.97;79.38
47716;BME280;33476;50.984;3.538;2024-02-15T01:19:40;101661.22;;;15.02;79.11
47716;BME280;33476;50.984;3.538;2024-02-15T01:22:06;101650.06;;;14.97;79.18
47716;BME280;33476;50.984;3.538;2024-02-15T01:24:31;101665.94;;;14.96;79.41
47716;BME280;33476;50.984;3.538;2024-02-15T01:26:57;101661.47;;;14.98;79.24
47716;BME280;33476;50.984;3.538;2024-02-15T01:29:23;101662.22;;;15.00;79.16
47716;BME280;33476;50.984;3.538;2024-02-15T01:31:49;101649.94;;;15.00;79.23
47716;BME280;33476;50.984;3.538;2024-02-15T01:34:15;101648.31;;;14.98;79.38
47716;BME280;33476;50.984;3.538;2024-02-15T01:36:40;101650.16;;;14.96;79.50
47716;BME280;33476;50.984;3.538;2024-02-15T01:39:05;101638.47;;;15.01;79.24
47716;BME280;33476;50.984;3.538;2024-02-15T01:41:31;101640.94;;;15.04;79.23
47716;BME280;33476;50.984;3.538;2024-02-15T01:43:57;101640.16;;;15.02;79.20
47716;BME280;33476;50.984;3.538;2024-02-15T01:46:22;101635.16;;;14.98;79.65
47716;BME280;33476;50.984;3.538;2024-02-15T01:48:49;101638.78;;;14.95;79.82
47716;BME280;33476;50.984;3.538;2024-02-15T01:51:15;101642.03;;;15.00;79.59
47716;BME280;33476;50.984;3.538;2024-02-15T01:53:42;101641.78;;;15.05;79.41
47716;BME280;33476;50.984;3.538;2024-02-15T01:56:07;101645.19;;;15.07;79.38
47716;BME280;33476;50.984;3.538;2024-02-15T01:58:33;101640.84;;;15.06;79.47
47716;BME280;33476;50.984;3.538;2024-02-15T02:01:00;101632.09;;;15.05;79.53
47716;BME280;33476;50.984;3.538;2024-02-15T02:03:27;101644.59;;;15.02;79.54
47716;BME280;33476;50.984;3.538;2024-02-15T02:05:53;101640.25;;;15.01;79.84
47716;BME280;33476;50.984;3.538;2024-02-15T02:08:18;101636.06;;;14.97;79.64
47716;BME280;33476;50.984;3.538;2024-02-15T02:10:44;101639.56;;;14.97;79.62
47716;BME280;33476;50.984;3.538;2024-02-15T02:13:11;101636.25;;;14.94;79.68
47716;BME280;33476;50.984;3.538;2024-02-15T02:15:36;101633.69;;;14.92;79.65
47716;BME280;33476;50.984;3.538;2024-02-15T02:18:03;101634.63;;;14.91;80.03
47716;BME280;33476;50.984;3.538;2024-02-15T02:20:31;101637.41;;;14.88;79.85
47716;BME280;33476;50.984;3.538;2024-02-15T02:23:07;101616.63;;;14.83;80.11
47716;BME280;33476;50.984;3.538;2024-02-15T02:25:32;101617.06;;;14.92;79.57
47716;BME280;33476;50.984;3.538;2024-02-15T02:27:59;101615.28;;;14.92;79.45
47716;BME280;33476;50.984;3.538;2024-02-15T02:30:25;101628.44;;;14.92;79.40
47716;BME280;33476;50.984;3.538;2024-02-15T02:32:55;101627.41;;;14.95;79.49
47716;BME280;33476;50.984;3.538;2024-02-15T02:35:20;101628.44;;;14.92;79.28
47716;BME280;33476;50.984;3.538;2024-02-15T02:37:45;101619.78;;;14.90;79.26
47716;BME280;33476;50.984;3.538;2024-02-15T02:40:11;101620.97;;;14.84;79.60
47716;BME280;33476;50.984;3.538;2024-02-15T02:42:50;101617.72;;;14.79;79.87
47716;BME280;33476;50.984;3.538;2024-02-15T02:45:16;101606.25;;;14.80;79.99
47716;BME280;33476;50.984;3.538;2024-02-15T02:47:42;101606.13;;;14.83;79.74
47716;BME280;33476;50.984;3.538;2024-02-15T02:50:07;101601.78;;;14.82;80.00
47716;BME280;33476;50.984;3.538;2024-02-15T02:52:33;101599.28;;;14.79;80.18
47716;BME280;33476;50.984;3.538;2024-02-15T02:54:58;101595.06;;;14.77;80.24
47716;BME280;33476;50.984;3.538;2024-02-15T02:57:24;101589.88;;;14.75;80.74
47716;BME280;33476;50.984;3.538;2024-02-15T02:59:51;101581.06;;;14.76;80.67
47716;BME280;33476;50.984;3.538;2024-02-15T03:02:16;101586.50;;;14.73;80.78
47716;BME280;33476;50.984;3.538;2024-02-15T03:04:43;101586.72;;;14.69;80.97
47716;BME280;33476;50.984;3.538;2024-02-15T03:07:09;101582.31;;;14.69;81.06
47716;BME280;33476;50.984;3.538;2024-02-15T03:09:34;101579.47;;;14.74;81.00
47716;BME280;33476;50.984;3.538;2024-02-15T03:12:00;101577.72;;;14.73;81.09
47716;BME280;33476;50.984;3.538;2024-02-15T03:14:26;101571.81;;;14.69;81.40
47716;BME280;33476;50.984;3.538;2024-02-15T03:16:51;101577.91;;;14.70;81.21
47716;BME280;33476;50.984;3.538;2024-02-15T03:19:17;101573.50;;;14.70;81.78
47716;BME280;33476;50.984;3.538;2024-02-15T03:21:42;101580.31;;;14.74;81.39
47716;BME280;33476;50.984;3.538;2024-02-15T03:24:11;101570.09;;;14.68;81.95
47716;BME280;33476;50.984;3.538;2024-02-15T03:26:37;101565.78;;;14.67;81.78
47716;BME280;33476;50.984;3.538;2024-02-15T03:29:04;101569.47;;;14.63;81.96
47716;BME280;33476;50.984;3.538;2024-02-15T03:31:29;101555.50;;;14.63;82.04
47716;BME280;33476;50.984;3.538;2024-02-15T03:33:57;101564.50;;;14.58;82.29
47716;BME280;33476;50.984;3.538;2024-02-15T03:36:22;101574.16;;;14.58;82.30
47716;BME280;33476;50.984;3.538;2024-02-15T03:38:48;101568.06;;;14.57;82.55
47716;BME280;33476;50.984;3.538;2024-02-15T03:41:13;101556.69;;;14.57;82.51
47716;BME280;33476;50.984;3.538;2024-02-15T03:43:39;101553.97;;;14.58;82.66
47716;BME280;33476;50.984;3.538;2024-02-15T03:46:05;101559.06;;;14.61;82.47
47716;BME280;33476;50.984;3.538;2024-02-15T03:48:32;101556.50;;;14.60;82.40
47716;BME280;33476;50.984;3.538;2024-02-15T03:50:57;101561.78;;;14.60;82.24
47716;BME280;33476;50.984;3.538;2024-02-15T03:53:23;101561.69;;;14.61;82.27
47716;BME280;33476;50.984;3.538;2024-02-15T03:55:49;101559.06;;;14.61;82.22
47716;BME280;33476;50.984;3.538;2024-02-15T03:58:18;101558.22;;;14.61;82.23
47716;BME280;33476;50.984;3.538;2024-02-15T04:00:45;101554.72;;;14.60;82.31
47716;BME280;33476;50.984;3.538;2024-02-15T04:03:10;101555.59;;;14.61;82.37
47716;BME280;33476;50.984;3.538;2024-02-15T04:05:35;101553.03;;;14.59;82.36
47716;BME280;33476;50.984;3.538;2024-02-15T04:08:01;101556.19;;;14.66;81.78
47716;BME280;33476;50.984;3.538;2024-02-15T04:10:28;101555.25;;;14.67;81.83
47716;BME280;33476;50.984;3.538;2024-02-15T04:12:53;101554.94;;;14.73;81.64
47716;BME280;33476;50.984;3.538;2024-02-15T04:15:19;101554.16;;;14.71;81.47
47716;BME280;33476;50.984;3.538;2024-02-15T04:17:44;101551.63;;;14.70;81.58
47716;BME280;33476;50.984;3.538;2024-02-15T04:20:10;101553.91;;;14.76;81.51
47716;BME280;33476;50.984;3.538;2024-02-15T04:22:37;101554.59;;;14.79;81.27
47716;BME280;33476;50.984;3.538;2024-02-15T04:25:04;101560.13;;;14.75;81.30
47716;BME280;33476;50.984;3.538;2024-02-15T04:27:31;101562.66;;;14.76;81.13
47716;BME280;33476;50.984;3.538;2024-02-15T04:29:56;101557.22;;;14.79;80.96
47716;BME280;33476;50.984;3.538;2024-02-15T04:32:22;101554.59;;;14.79;81.02
47716;BME280;33476;50.984;3.538;2024-02-15T04:34:48;101546.69;;;14.79;81.20
47716;BME280;33476;50.984;3.538;2024-02-15T04:37:13;101544.16;;;14.78;80.97
47716;BME280;33476;50.984;3.538;2024-02-15T04:39:39;101540.44;;;14.82;81.09
47716;BME280;33476;50.984;3.538;2024-02-15T04:42:05;101540.44;;;14.82;80.96
47716;BME280;33476;50.984;3.538;2024-02-15T04:44:32;101530.78;;;14.82;80.67
47716;BME280;33476;50.984;3.538;2024-02-15T04:47:00;101529.00;;;14.83;80.60
47716;BME280;33476;50.984;3.538;2024-02-15T04:49:26;101535.00;;;14.85;80.46
47716;BME280;33476;50.984;3.538;2024-02-15T04:51:54;101529.09;;;14.81;80.52
47716;BME280;33476;50.984;3.538;2024-02-15T04:54:19;101525.56;;;14.81;80.46
47716;BME280;33476;50.984;3.538;2024-02-15T04:56:45;101527.34;;;14.80;80.49
47716;BME280;33476;50.984;3.538;2024-02-15T04:59:11;101524.81;;;14.79;80.37
47716;BME280;33476;50.984;3.538;2024-02-15T05:01:46;101519.16;;;14.86;80.09
47716;BME280;33476;50.984;3.538;2024-02-15T05:04:12;101521.69;;;14.88;79.73
47716;BME280;33476;50.984;3.538;2024-02-15T05:06:39;101526.94;;;14.88;79.86
47716;BME280;33476;50.984;3.538;2024-02-15T05:09:05;101518.06;;;14.91;79.71
47716;BME280;33476;50.984;3.538;2024-02-15T05:11:39;101529.34;;;14.93;79.43
47716;BME280;33476;50.984;3.538;2024-02-15T05:14:11;101523.31;;;14.91;79.32
47716;BME280;33476;50.984;3.538;2024-02-15T05:16:37;101520.84;;;14.87;79.43
47716;BME280;33476;50.984;3.538;2024-02-15T05:19:08;101515.56;;;14.87;79.49
47716;BME280;33476;50.984;3.538;2024-02-15T05:21:36;101511.25;;;14.86;79.51
47716;BME280;33476;50.984;3.538;2024-02-15T05:24:03;101507.78;;;14.86;79.26
47716;BME280;33476;50.984;3.538;2024-02-15T05:26:28;101504.38;;;14.84;79.25
47716;BME280;33476;50.984;3.538;2024-02-15T05:28:54;101516.38;;;14.89;78.96
47716;BME280;33476;50.984;3.538;2024-02-15T05:31:20;101507.59;;;14.89;78.89
47716;BME280;33476;50.984;3.538;2024-02-15T05:33:47;101517.53;;;14.84;78.72
47716;BME280;33476;50.984;3.538;2024-02-15T05:36:13;101517.63;;;14.82;78.74
47716;BME280;33476;50.984;3.538;2024-02-15T05:38:39;101514.81;;;14.85;78.74
47716;BME280;33476;50.984;3.538;2024-02-15T05:41:05;101509.22;;;14.92;78.44
47716;BME280;33476;50.984;3.538;2024-02-15T05:43:34;101504.72;;;14.94;77.92
47716;BME280;33476;50.984;3.538;2024-02-15T05:46:04;101498.72;;;14.92;78.06
47716;BME280;33476;50.984;3.538;2024-02-15T05:48:31;101491.56;;;14.94;78.02
47716;BME280;33476;50.984;3.538;2024-02-15T05:51:03;101494.13;;;14.95;77.77
47716;BME280;33476;50.984;3.538;2024-02-15T05:53:29;101482.09;;;14.91;77.49
47716;BME280;33476;50.984;3.538;2024-02-15T05:55:55;101478.75;;;14.87;77.61
47716;BME280;33476;50.984;3.538;2024-02-15T05:58:20;101489.19;;;14.89;77.33
47716;BME280;33476;50.984;3.538;2024-02-15T06:00:46;101486.56;;;14.89;77.23
47716;BME280;33476;50.984;3.538;2024-02-15T06:03:18;101484.72;;;14.91;77.09
47716;BME280;33476;50.984;3.538;2024-02-15T06:05:43;101482.94;;;14.92;76.95
47716;BME280;33476;50.984;3.538;2024-02-15T06:08:10;101487.25;;;14.93;76.76
47716;BME280;33476;50.984;3.538;2024-02-15T06:10:39;101481.28;;;14.89;76.81
47716;BME280;33476;50.984;3.538;2024-02-15T06:13:05;101480.53;;;14.87;76.65
47716;BME280;33476;50.984;3.538;2024-02-15T06:15:30;101478.75;;;14.87;76.58
47716;BME280;33476;50.984;3.538;2024-02-15T06:17:56;101482.22;;;14.88;76.14
47716;BME280;33476;50.984;3.538;2024-02-15T06:20:22;101478.00;;;14.85;76.05
47716;BME280;33476;50.984;3.538;2024-02-15T06:22:48;101480.53;;;14.87;76.06
47716;BME280;33476;50.984;3.538;2024-02-15T06:25:13;101475.38;;;14.85;76.03
47716;BME280;33476;50.984;3.538;2024-02-15T06:27:40;101479.88;;;14.83;75.99
47716;BME280;33476;50.984;3.538;2024-02-15T06:30:09;101478.25;;;14.81;76.06
47716;BME280;33476;50.984;3.538;2024-02-15T06:32:53;101486.56;;;14.89;75.74
47716;BME280;33476;50.984;3.538;2024-02-15T06:35:37;101489.13;;;14.91;75.59
47716;BME280;33476;50.984;3.538;2024-02-15T06:38:22;101479.78;;;14.85;75.56
47716;BME280;33476;50.984;3.538;2024-02-15T06:41:07;101484.09;;;14.86;75.35
47716;BME280;33476;50.984;3.538;2024-02-15T06:43:32;101487.44;;;14.89;75.41
47716;BME280;33476;50.984;3.538;2024-02-15T06:46:00;101492.69;;;14.89;75.22
47716;BME280;33476;50.984;3.538;2024-02-15T06:48:25;101493.78;;;14.85;75.29
47716;BME280;33476;50.984;3.538;2024-02-15T06:50:51;101500.59;;;14.89;74.96
47716;BME280;33476;50.984;3.538;2024-02-15T06:53:16;101493.44;;;14.92;74.86
47716;BME280;33476;50.984;3.538;2024-02-15T06:55:42;101505.75;;;14.91;74.71
47716;BME280;33476;50.984;3.538;2024-02-15T06:58:08;101502.28;;;14.91;74.78
47716;BME280;33476;50.984;3.538;2024-02-15T07:00:33;101506.75;;;14.88;74.86
47716;BME280;33476;50.984;3.538;2024-02-15T07:02:58;101512.09;;;14.87;75.12
47716;BME280;33476;50.984;3.538;2024-02-15T07:05:24;101515.56;;;14.87;75.26
47716;BME280;33476;50.984;3.538;2024-02-15T07:07:49;101514.72;;;14.87;75.25
47716;BME280;33476;50.984;3.538;2024-02-15T07:10:15;101507.78;;;14.86;75.63
47716;BME280;33476;50.984;3.538;2024-02-15T07:12:42;101517.53;;;14.84;75.66
47716;BME280;33476;50.984;3.538;2024-02-15T07:15:09;101522.03;;;14.82;76.01
47716;BME280;33476;50.984;3.538;2024-02-15T07:17:35;101523.81;;;14.81;76.01
47716;BME280;33476;50.984;3.538;2024-02-15T07:20:02;101518.88;;;14.75;76.18
47716;BME280;33476;50.984;3.538;2024-02-15T07:22:30;101520.91;;;14.70;76.10
47716;BME280;33476;50.984;3.538;2024-02-15T07:24:56;101513.09;;;14.69;76.57
47716;BME280;33476;50.984;3.538;2024-02-15T07:27:21;101520.06;;;14.70;76.48
47716;BME280;33476;50.984;3.538;2024-02-15T07:29:50;101520.06;;;14.70;76.62
47716;BME280;33476;50.984;3.538;2024-02-15T07:32:16;101514.03;;;14.68;76.51
47716;BME280;33476;50.984;3.538;2024-02-15T07:34:42;101516.06;;;14.63;77.07
47716;BME280;33476;50.984;3.538;2024-02-15T07:37:09;101520.78;;;14.56;77.42
47716;BME280;33476;50.984;3.538;2024-02-15T07:39:34;101512.22;;;14.52;77.81
47716;BME280;33476;50.984;3.538;2024-02-15T07:42:01;101514.63;;;14.57;77.87
47716;BME280;33476;50.984;3.538;2024-02-15T07:44:30;101511.16;;;14.56;78.04
47716;BME280;33476;50.984;3.538;2024-02-15T07:46:58;101517.41;;;14.54;78.17
47716;BME280;33476;50.984;3.538;2024-02-15T07:49:25;101518.50;;;14.50;78.73
47716;BME280;33476;50.984;3.538;2024-02-15T07:51:51;101515.88;;;14.50;78.92
47716;BME280;33476;50.984;3.538;2024-02-15T07:54:23;101499.78;;;14.39;79.78
47716;BME280;33476;50.984;3.538;2024-02-15T07:56:49;101513.72;;;14.41;79.85
47716;BME280;33476;50.984;3.538;2024-02-15T07:59:15;101504.03;;;14.41;79.74
47716;BME280;33476;50.984;3.538;2024-02-15T08:01:44;101505.03;;;14.39;80.13
47716;BME280;33476;50.984;3.538;2024-02-15T08:04:15;101498.16;;;14.36;80.49
47716;BME280;33476;50.984;3.538;2024-02-15T08:06:41;101505.28;;;14.34;80.83
47716;BME280;33476;50.984;3.538;2024-02-15T08:09:07;101507.75;;;14.37;80.74
47716;BME280;33476;50.984;3.538;2024-02-15T08:11:32;101505.97;;;14.38;80.74
47716;BME280;33476;50.984;3.538;2024-02-15T08:13:58;101509.22;;;14.43;80.68
47716;BME280;33476;50.984;3.538;2024-02-15T08:16:25;101515.31;;;14.43;80.93
47716;BME280;33476;50.984;3.538;2024-02-15T08:18:54;101513.72;;;14.41;81.17
47716;BME280;33476;50.984;3.538;2024-02-15T08:21:33;101512.88;;;14.40;81.54
47716;BME280;33476;50.984;3.538;2024-02-15T08:24:00;101503.19;;;14.58;80.47
47716;BME280;33476;50.984;3.538;2024-02-15T08:26:33;101512.84;;;14.57;79.83
47716;BME280;33476;50.984;3.538;2024-02-15T08:29:01;101505.94;;;14.55;80.16
47716;BME280;33476;50.984;3.538;2024-02-15T08:31:28;101503.09;;;14.59;80.43
47716;BME280;33476;50.984;3.538;2024-02-15T08:33:53;101498.44;;;14.65;80.30
47716;BME280;33476;50.984;3.538;2024-02-15T08:36:19;101499.13;;;14.68;80.31
47716;BME280;33476;50.984;3.538;2024-02-15T08:38:45;101498.78;;;14.74;79.99
47716;BME280;33476;50.984;3.538;2024-02-15T08:41:12;101490.53;;;14.80;79.80
47716;BME280;33476;50.984;3.538;2024-02-15T08:43:37;101491.25;;;14.84;79.72
47716;BME280;33476;50.984;3.538;2024-02-15T08:46:06;101497.16;;;14.87;79.72
47716;BME280;33476;50.984;3.538;2024-02-15T08:48:32;101492.59;;;14.91;79.50
47716;BME280;33476;50.984;3.538;2024-02-15T08:50:58;101491.56;;;14.94;79.54
47716;BME280;33476;50.984;3.538;2024-02-15T08:53:23;101487.84;;;14.98;79.28
47716;BME280;33476;50.984;3.538;2024-02-15T08:55:49;101488.34;;;15.04;79.00
47716;BME280;33476;50.984;3.538;2024-02-15T08:58:15;101486.31;;;15.09;78.67
47716;BME280;33476;50.984;3.538;2024-02-15T09:00:40;101485.88;;;15.17;78.56
47716;BME280;33476;50.984;3.538;2024-02-15T09:03:10;101481.28;;;15.21;78.36
47716;BME280;33476;50.984;3.538;2024-02-15T09:05:36;101473.28;;;15.22;77.92
47716;BME280;33476;50.984;3.538;2024-02-15T09:08:01;101470.84;;;15.19;77.82
47716;BME280;33476;50.984;3.538;2024-02-15T09:10:29;101469.06;;;15.20;77.81
47716;BME280;33476;50.984;3.538;2024-02-15T09:12:55;101476.81;;;15.23;77.47
47716;BME280;33476;50.984;3.538;2024-02-15T09:15:21;101472.19;;;15.26;76.90
47716;BME280;33476;50.984;3.538;2024-02-15T09:17:47;101469.56;;;15.26;76.65
47716;BME280;33476;50.984;3.538;2024-02-15T09:20:14;101464.13;;;15.29;76.35
47716;BME280;33476;50.984;3.538;2024-02-15T09:22:47;101457.16;;;15.28;76.42
47716;BME280;33476;50.984;3.538;2024-02-15T09:25:13;101457.16;;;15.28;76.30
47716;BME280;33476;50.984;3.538;2024-02-15T09:27:39;101464.13;;;15.29;76.38
47716;BME280;33476;50.984;3.538;2024-02-15T09:30:05;101458.84;;;15.29;76.33
47716;BME280;33476;50.984;3.538;2024-02-15T09:32:38;101462.19;;;15.33;76.28
47716;BME280;33476;50.984;3.538;2024-02-15T09:35:05;101460.94;;;15.38;76.08
47716;BME280;33476;50.984;3.538;2024-02-15T09:37:34;101456.38;;;15.42;75.85
47716;BME280;33476;50.984;3.538;2024-02-15T09:40:00;101462.28;;;15.45;75.92
47716;BME280;33476;50.984;3.538;2024-02-15T09:42:30;101460.25;;;15.51;75.71
47716;BME280;33476;50.984;3.538;2024-02-15T09:44:55;101459.06;;;15.56;75.42
47716;BME280;33476;50.984;3.538;2024-02-15T09:47:21;101463.53;;;15.54;75.36
47716;BME280;33476;50.984;3.538;2024-02-15T09:49:49;101462.44;;;15.58;75.34
47716;BME280;33476;50.984;3.538;2024-02-15T09:52:14;101463.28;;;15.59;75.09
47716;BME280;33476;50.984;3.538;2024-02-15T09:54:43;101452.44;;;15.65;75.24
47716;BME280;33476;50.984;3.538;2024-02-15T09:57:09;101456.66;;;15.67;74.58
47716;BME280;33476;50.984;3.538;2024-02-15T09:59:38;101455.38;;;15.75;74.06
47716;BME280;33476;50.984;3.538;2024-02-15T10:02:05;101459.25;;;15.83;73.74
47716;BME280;33476;50.984;3.538;2024-02-15T10:04:37;101440.25;;;15.92;73.37
47716;BME280;33476;50.984;3.538;2024-02-15T10:07:02;101437.91;;;16.02;72.92
47716;BME280;33476;50.984;3.538;2024-02-15T10:09:29;101431.97;;;16.27;72.34
47716;BME280;33476;50.984;3.538;2024-02-15T10:11:56;101422.88;;;16.60;71.40
47716;BME280;33476;50.984;3.538;2024-02-15T10:14:23;101420.66;;;16.95;70.64
47716;BME280;33476;50.984;3.538;2024-02-15T10:16:48;101424.47;;;17.30;69.60
47716;BME280;33476;50.984;3.538;2024-02-15T10:19:15;101419.88;;;17.59;68.87
47716;BME280;33476;50.984;3.538;2024-02-15T10:21:41;101421.28;;;17.78;68.34
47716;BME280;33476;50.984;3.538;2024-02-15T10:24:08;101421.06;;;17.93;67.53
47716;BME280;33476;50.984;3.538;2024-02-15T10:26:34;101426.47;;;18.05;66.74
47716;BME280;33476;50.984;3.538;2024-02-15T10:29:10;101419.78;;;18.12;66.77
47716;BME280;33476;50.984;3.538;2024-02-15T10:31:39;101407.81;;;18.32;66.33
47716;BME280;33476;50.984;3.538;2024-02-15T10:34:07;101403.00;;;18.49;65.64
47716;BME280;33476;50.984;3.538;2024-02-15T10:36:33;101405.94;;;18.58;64.07
47716;BME280;33476;50.984;3.538;2024-02-15T10:41:43;101395.69;;;18.66;64.26
47716;BME280;33476;50.984;3.538;2024-02-15T10:44:12;101389.00;;;18.60;63.57
47716;BME280;33476;50.984;3.538;2024-02-15T10:46:39;101393.03;;;18.53;63.82
47716;BME280;33476;50.984;3.538;2024-02-15T10:49:06;101391.03;;;18.57;63.83
47716;BME280;33476;50.984;3.538;2024-02-15T10:51:33;101394.84;;;18.65;63.58
47716;BME280;33476;50.984;3.538;2024-02-15T10:54:02;101383.88;;;18.83;63.16
47716;BME280;33476;50.984;3.538;2024-02-15T10:56:36;101382.19;;;19.05;62.27
47716;BME280;33476;50.984;3.538;2024-02-15T10:59:22;101375.56;;;19.11;61.87
47716;BME280;33476;50.984;3.538;2024-02-15T11:01:54;101378.00;;;19.14;61.60
47716;BME280;33476;50.984;3.538;2024-02-15T11:04:24;101372.19;;;19.09;61.49
47716;BME280;33476;50.984;3.538;2024-02-15T11:06:54;101369.84;;;18.93;61.76
47716;BME280;33476;50.984;3.538;2024-02-15T11:09:21;101358.25;;;18.83;61.53
47716;BME280;33476;50.984;3.538;2024-02-15T11:11:47;101353.63;;;18.74;61.66
47716;BME280;33476;50.984;3.538;2024-02-15T11:14:32;101352.81;;;18.61;61.63
47716;BME280;33476;50.984;3.538;2024-02-15T11:16:59;101345.22;;;18.56;61.88
47716;BME280;33476;50.984;3.538;2024-02-15T11:22:08;101340.50;;;18.48;61.73
47716;BME280;33476;50.984;3.538;2024-02-15T11:24:36;101330.63;;;18.50;61.82
47716;BME280;33476;50.984;3.538;2024-02-15T11:27:05;101331.91;;;18.45;61.46
47716;BME280;33476;50.984;3.538;2024-02-15T11:29:51;101333.84;;;18.43;61.74
47716;BME280;33476;50.984;3.538;2024-02-15T11:32:36;101331.91;;;18.45;61.63
47716;BME280;33476;50.984;3.538;2024-02-15T11:43:01;101316.13;;;18.19;61.37
47716;BME280;33476;50.984;3.538;2024-02-15T11:45:28;101315.53;;;18.16;61.66
47716;BME280;33476;50.984;3.538;2024-02-15T11:48:10;101311.31;;;18.13;61.74
47716;BME280;33476;50.984;3.538;2024-02-15T11:50:37;101306.88;;;18.14;61.11
47716;BME280;33476;50.984;3.538;2024-02-15T11:53:04;101305.50;;;18.08;61.44
47716;BME280;33476;50.984;3.538;2024-02-15T11:55:36;101302.00;;;18.08;61.27
47716;BME280;33476;50.984;3.538;2024-02-15T11:58:03;101294.91;;;18.08;61.39
47716;BME280;33476;50.984;3.538;2024-02-15T12:00:32;101296.41;;;18.12;61.61
47716;BME280;33476;50.984;3.538;2024-02-15T12:03:17;101289.81;;;18.18;61.68
47716;BME280;33476;50.984;3.538;2024-02-15T12:06:01;101286.22;;;18.19;61.58
47716;BME280;33476;50.984;3.538;2024-02-15T12:08:46;101286.97;;;18.21;61.69
47716;BME280;33476;50.984;3.538;2024-02-15T12:11:31;101270.34;;;18.19;61.88
47716;BME280;33476;50.984;3.538;2024-02-15T12:14:15;101270.25;;;18.20;62.14
47716;BME280;33476;50.984;3.538;2024-02-15T12:19:44;101258.44;;;18.13;61.80
47716;BME280;33476;50.984;3.538;2024-02-15T12:22:09;101262.13;;;18.11;61.75
47716;BME280;33476;50.984;3.538;2024-02-15T12:24:35;101259.59;;;18.09;61.55
47716;BME280;33476;50.984;3.538;2024-02-15T12:27:01;101250.00;;;18.08;61.67
47716;BME280;33476;50.984;3.538;2024-02-15T12:29:31;101239.09;;;18.13;61.79
47716;BME280;33476;50.984;3.538;2024-02-15T12:31:58;101236.72;;;18.21;61.66
47716;BME280;33476;50.984;3.538;2024-02-15T12:34:24;101230.66;;;18.32;61.77
47716;BME280;33476;50.984;3.538;2024-02-15T12:36:49;101232.50;;;18.42;61.18
47716;BME280;33476;50.984;3.538;2024-02-15T12:39:24;101214.88;;;18.54;60.74
47716;BME280;33476;50.984;3.538;2024-02-15T12:41:50;101215.66;;;18.67;60.31
47716;BME280;33476;50.984;3.538;2024-02-15T12:44:18;101216.88;;;18.74;60.14
47716;BME280;33476;50.984;3.538;2024-02-15T12:46:54;101207.38;;;18.72;60.53
47716;BME280;33476;50.984;3.538;2024-02-15T12:51:50;101199.72;;;18.56;60.06
47716;BME280;33476;50.984;3.538;2024-02-15T12:54:22;101202.59;;;18.53;59.91
47716;BME280;33476;50.984;3.538;2024-02-15T12:56:48;101197.19;;;18.55;59.75
47716;BME280;33476;50.984;3.538;2024-02-15T12:59:14;101194.56;;;18.55;59.96
47716;BME280;33476;50.984;3.538;2024-02-15T13:01:40;101195.84;;;18.49;59.68
47716;BME280;33476;50.984;3.538;2024-02-15T13:04:05;101190.31;;;18.52;59.52
47716;BME280;33476;50.984;3.538;2024-02-15T13:06:31;101190.22;;;18.53;59.62
47716;BME280;33476;50.984;3.538;2024-02-15T13:09:00;101185.03;;;18.52;59.46
47716;BME280;33476;50.984;3.538;2024-02-15T13:11:25;101186.13;;;18.49;59.56